sensor_id;sensor_type;location;lat;lon;timestamp;P1;durP1;ratioP1;P2;durP2;ratioP2
64065;SDS011;50318;54.760;9.408;2022-11-12T00:02:39;43.90;;;25.38;;
64065;SDS011;50318;54.760;9.408;2022-11-12T00:05:31;46.05;;;25.75;;
64065;SDS011;50318;54.760;9.408;2022-11-12T00:08:16;48.28;;;26.77;;
64065;SDS011;50318;54.760;9.408;2022-11-12T00:11:00;45.05;;;25.38;;
64065;SDS011;50318;54.760;9.408;2022-11-12T00:13:44;49.28;;;27.10;;
64065;SDS011;50318;54.760;9.408;2022-11-12T00:16:28;46.67;;;26.27;;
64065;SDS011;50318;54.760;9.408;2022-11-12T00:19:13;53.53;;;27.30;;
64065;SDS011;50318;54.760;9.408;2022-11-12T00:21:57;50.58;;;27.58;;
64065;SDS011;50318;54.760;9.408;2022-11-12T00:24:41;50.97;;;27.70;;
64065;SDS011;50318;54.760;9.408;2022-11-12T00:27:25;51.35;;;27.75;;
64065;SDS011;50318;54.760;9.408;2022-11-12T00:30:09;51.37;;;27.27;;
64065;SDS011;50318;54.760;9.408;2022-11-12T00:32:55;49.60;;;27.85;;
64065;SDS011;50318;54.760;9.408;2022-11-12T00:35:39;53.50;;;28.55;;
64065;SDS011;50318;54.760;9.408;2022-11-12T00:38:24;55.22;;;29.27;;
64065;SDS011;50318;54.760;9.408;2022-11-12T00:41:08;57.30;;;29.80;;
64065;SDS011;50318;54.760;9.408;2022-11-12T00:43:52;49.13;;;28.00;;
64065;SDS011;50318;54.760;9.408;2022-11-12T00:46:36;55.28;;;29.42;;
64065;SDS011;50318;54.760;9.408;2022-11-12T00:49:21;52.63;;;29.20;;
64065;SDS011;50318;54.760;9.408;2022-11-12T00:52:05;60.70;;;30.98;;
64065;SDS011;50318;54.760;9.408;2022-11-12T00:54:50;53.50;;;29.75;;
64065;SDS011;50318;54.760;9.408;2022-11-12T00:57:34;56.00;;;30.85;;
64065;SDS011;50318;54.760;9.408;2022-11-12T01:00:20;57.13;;;31.05;;
64065;SDS011;50318;54.760;9.408;2022-11-12T01:03:07;50.92;;;29.25;;
64065;SDS011;50318;54.760;9.408;2022-11-12T01:05:52;54.85;;;30.63;;
64065;SDS011;50318;54.760;9.408;2022-11-12T01:08:37;54.77;;;30.80;;
64065;SDS011;50318;54.760;9.408;2022-11-12T01:11:24;53.53;;;29.20;;
64065;SDS011;50318;54.760;9.408;2022-11-12T01:14:32;57.80;;;30.07;;
64065;SDS011;50318;54.760;9.408;2022-11-12T01:17:20;57.28;;;30.15;;
64065;SDS011;50318;54.760;9.408;2022-11-12T01:20:04;59.50;;;31.50;;
64065;SDS011;50318;54.760;9.408;2022-11-12T01:22:49;51.67;;;29.73;;
64065;SDS011;50318;54.760;9.408;2022-11-12T01:25:36;55.40;;;30.33;;
64065;SDS011;50318;54.760;9.408;2022-11-12T01:28:21;51.60;;;29.00;;
64065;SDS011;50318;54.760;9.408;2022-11-12T01:31:26;53.35;;;29.48;;
64065;SDS011;50318;54.760;9.408;2022-11-12T01:34:12;57.28;;;29.58;;
64065;SDS011;50318;54.760;9.408;2022-11-12T01:36:56;55.10;;;29.92;;
64065;SDS011;50318;54.760;9.408;2022-11-12T01:39:40;54.35;;;29.15;;
64065;SDS011;50318;54.760;9.408;2022-11-12T01:42:27;55.55;;;28.77;;
64065;SDS011;50318;54.760;9.408;2022-11-12T01:45:15;50.72;;;28.48;;
64065;SDS011;50318;54.760;9.408;2022-11-12T01:47:59;53.97;;;29.08;;
64065;SDS011;50318;54.760;9.408;2022-11-12T01:50:43;55.85;;;30.00;;
64065;SDS011;50318;54.760;9.408;2022-11-12T01:53:28;53.10;;;29.17;;
64065;SDS011;50318;54.760;9.408;2022-11-12T01:56:20;52.33;;;28.17;;
64065;SDS011;50318;54.760;9.408;2022-11-12T01:59:09;55.78;;;29.05;;
64065;SDS011;50318;54.760;9.408;2022-11-12T02:01:57;50.55;;;28.38;;
64065;SDS011;50318;54.760;9.408;2022-11-12T02:04:42;52.05;;;28.95;;
64065;SDS011;50318;54.760;9.408;2022-11-12T02:07:27;54.35;;;27.70;;
64065;SDS011;50318;54.760;9.408;2022-11-12T02:10:14;49.13;;;27.00;;
64065;SDS011;50318;54.760;9.408;2022-11-12T02:12:59;50.30;;;26.90;;
64065;SDS011;50318;54.760;9.408;2022-11-12T02:16:03;44.42;;;25.05;;
64065;SDS011;50318;54.760;9.408;2022-11-12T02:18:50;48.97;;;27.40;;
64065;SDS011;50318;54.760;9.408;2022-11-12T02:21:34;48.15;;;26.52;;
64065;SDS011;50318;54.760;9.408;2022-11-12T02:27:03;50.22;;;27.13;;
64065;SDS011;50318;54.760;9.408;2022-11-12T02:29:49;49.25;;;28.75;;
64065;SDS011;50318;54.760;9.408;2022-11-12T02:32:33;55.78;;;29.23;;
64065;SDS011;50318;54.760;9.408;2022-11-12T02:35:17;51.40;;;27.45;;
64065;SDS011;50318;54.760;9.408;2022-11-12T02:38:01;51.55;;;27.95;;
64065;SDS011;50318;54.760;9.408;2022-11-12T02:40:46;53.53;;;29.80;;
64065;SDS011;50318;54.760;9.408;2022-11-12T02:43:30;56.60;;;30.92;;
64065;SDS011;50318;54.760;9.408;2022-11-12T02:46:14;58.63;;;31.40;;
64065;SDS011;50318;54.760;9.408;2022-11-12T02:48:58;58.67;;;29.98;;
64065;SDS011;50318;54.760;9.408;2022-11-12T02:51:43;55.30;;;29.02;;
64065;SDS011;50318;54.760;9.408;2022-11-12T02:54:27;54.77;;;29.40;;
64065;SDS011;50318;54.760;9.408;2022-11-12T02:57:11;58.45;;;30.33;;
64065;SDS011;50318;54.760;9.408;2022-11-12T02:59:56;52.95;;;28.08;;
64065;SDS011;50318;54.760;9.408;2022-11-12T03:02:40;55.40;;;30.77;;
64065;SDS011;50318;54.760;9.408;2022-11-12T03:05:42;57.05;;;30.25;;
64065;SDS011;50318;54.760;9.408;2022-11-12T03:08:51;54.30;;;29.45;;
64065;SDS011;50318;54.760;9.408;2022-11-12T03:11:35;59.60;;;31.20;;
64065;SDS011;50318;54.760;9.408;2022-11-12T03:14:19;57.88;;;30.85;;
64065;SDS011;50318;54.760;9.408;2022-11-12T03:17:27;57.25;;;29.25;;
64065;SDS011;50318;54.760;9.408;2022-11-12T03:20:11;49.03;;;28.15;;
64065;SDS011;50318;54.760;9.408;2022-11-12T03:22:57;54.40;;;29.35;;
64065;SDS011;50318;54.760;9.408;2022-11-12T03:25:49;56.63;;;30.38;;
64065;SDS011;50318;54.760;9.408;2022-11-12T03:28:33;58.15;;;30.20;;
64065;SDS011;50318;54.760;9.408;2022-11-12T03:31:17;50.35;;;28.13;;
64065;SDS011;50318;54.760;9.408;2022-11-12T03:34:11;56.65;;;29.30;;
64065;SDS011;50318;54.760;9.408;2022-11-12T03:36:56;59.70;;;29.55;;
64065;SDS011;50318;54.760;9.408;2022-11-12T03:39:40;57.85;;;30.25;;
64065;SDS011;50318;54.760;9.408;2022-11-12T03:42:25;55.65;;;28.95;;
64065;SDS011;50318;54.760;9.408;2022-11-12T03:45:09;58.17;;;29.37;;
64065;SDS011;50318;54.760;9.408;2022-11-12T03:48:13;55.83;;;30.50;;
64065;SDS011;50318;54.760;9.408;2022-11-12T03:50:57;58.37;;;29.90;;
64065;SDS011;50318;54.760;9.408;2022-11-12T03:53:42;51.80;;;28.05;;
64065;SDS011;50318;54.760;9.408;2022-11-12T03:56:47;54.13;;;29.08;;
64065;SDS011;50318;54.760;9.408;2022-11-12T03:59:31;51.80;;;27.75;;
64065;SDS011;50318;54.760;9.408;2022-11-12T04:02:15;55.20;;;28.25;;
64065;SDS011;50318;54.760;9.408;2022-11-12T04:05:00;52.80;;;27.33;;
64065;SDS011;50318;54.760;9.408;2022-11-12T04:08:04;52.58;;;27.08;;
64065;SDS011;50318;54.760;9.408;2022-11-12T04:11:14;46.03;;;26.20;;
64065;SDS011;50318;54.760;9.408;2022-11-12T04:13:59;51.92;;;27.48;;
64065;SDS011;50318;54.760;9.408;2022-11-12T04:16:43;50.53;;;25.87;;
64065;SDS011;50318;54.760;9.408;2022-11-12T04:19:46;47.92;;;26.23;;
64065;SDS011;50318;54.760;9.408;2022-11-12T04:22:50;49.47;;;25.80;;
64065;SDS011;50318;54.760;9.408;2022-11-12T04:25:38;51.97;;;26.03;;
64065;SDS011;50318;54.760;9.408;2022-11-12T04:28:41;52.95;;;26.35;;
64065;SDS011;50318;54.760;9.408;2022-11-12T04:32:02;47.40;;;25.85;;
64065;SDS011;50318;54.760;9.408;2022-11-12T04:34:46;49.90;;;25.27;;
64065;SDS011;50318;54.760;9.408;2022-11-12T04:37:31;48.70;;;25.08;;
64065;SDS011;50318;54.760;9.408;2022-11-12T04:40:27;48.10;;;25.48;;
64065;SDS011;50318;54.760;9.408;2022-11-12T04:43:30;46.08;;;25.48;;
64065;SDS011;50318;54.760;9.408;2022-11-12T04:46:33;45.10;;;24.97;;
64065;SDS011;50318;54.760;9.408;2022-11-12T04:49:17;50.38;;;25.50;;
64065;SDS011;50318;54.760;9.408;2022-11-12T04:52:01;48.50;;;25.30;;
64065;SDS011;50318;54.760;9.408;2022-11-12T04:54:49;47.55;;;26.27;;
64065;SDS011;50318;54.760;9.408;2022-11-12T04:57:34;47.90;;;27.17;;
64065;SDS011;50318;54.760;9.408;2022-11-12T05:00:18;52.07;;;28.50;;
64065;SDS011;50318;54.760;9.408;2022-11-12T05:03:03;51.83;;;29.13;;
64065;SDS011;50318;54.760;9.408;2022-11-12T05:05:47;51.88;;;29.25;;
64065;SDS011;50318;54.760;9.408;2022-11-12T05:08:31;58.20;;;31.25;;
64065;SDS011;50318;54.760;9.408;2022-11-12T05:11:15;55.28;;;29.67;;
64065;SDS011;50318;54.760;9.408;2022-11-12T05:14:00;58.90;;;29.90;;
64065;SDS011;50318;54.760;9.408;2022-11-12T05:16:44;52.75;;;30.13;;
64065;SDS011;50318;54.760;9.408;2022-11-12T05:19:28;54.20;;;30.63;;
64065;SDS011;50318;54.760;9.408;2022-11-12T05:22:30;54.25;;;30.90;;
64065;SDS011;50318;54.760;9.408;2022-11-12T05:25:14;59.90;;;32.63;;
64065;SDS011;50318;54.760;9.408;2022-11-12T05:27:58;61.03;;;31.53;;
64065;SDS011;50318;54.760;9.408;2022-11-12T05:30:45;55.35;;;30.67;;
64065;SDS011;50318;54.760;9.408;2022-11-12T05:33:30;61.65;;;33.30;;
64065;SDS011;50318;54.760;9.408;2022-11-12T05:36:15;60.88;;;33.80;;
64065;SDS011;50318;54.760;9.408;2022-11-12T05:39:02;63.30;;;34.10;;
64065;SDS011;50318;54.760;9.408;2022-11-12T05:41:47;60.20;;;32.53;;
64065;SDS011;50318;54.760;9.408;2022-11-12T05:44:32;66.07;;;35.92;;
64065;SDS011;50318;54.760;9.408;2022-11-12T05:47:16;64.22;;;34.28;;
64065;SDS011;50318;54.760;9.408;2022-11-12T05:50:00;66.93;;;35.22;;
64065;SDS011;50318;54.760;9.408;2022-11-12T05:52:44;64.90;;;36.80;;
64065;SDS011;50318;54.760;9.408;2022-11-12T05:55:30;66.47;;;35.53;;
64065;SDS011;50318;54.760;9.408;2022-11-12T05:58:32;63.93;;;35.40;;
64065;SDS011;50318;54.760;9.408;2022-11-12T06:01:16;66.43;;;34.15;;
64065;SDS011;50318;54.760;9.408;2022-11-12T06:04:01;63.63;;;35.33;;
64065;SDS011;50318;54.760;9.408;2022-11-12T06:06:45;68.75;;;34.70;;
64065;SDS011;50318;54.760;9.408;2022-11-12T06:09:29;63.03;;;33.92;;
64065;SDS011;50318;54.760;9.408;2022-11-12T06:12:14;59.88;;;33.58;;
64065;SDS011;50318;54.760;9.408;2022-11-12T06:14:58;62.22;;;33.97;;
64065;SDS011;50318;54.760;9.408;2022-11-12T06:17:42;60.10;;;33.23;;
64065;SDS011;50318;54.760;9.408;2022-11-12T06:20:27;61.90;;;32.03;;
64065;SDS011;50318;54.760;9.408;2022-11-12T06:23:11;58.67;;;33.03;;
64065;SDS011;50318;54.760;9.408;2022-11-12T06:25:55;59.10;;;32.58;;
64065;SDS011;50318;54.760;9.408;2022-11-12T06:28:39;56.17;;;31.40;;
64065;SDS011;50318;54.760;9.408;2022-11-12T06:31:24;58.28;;;31.20;;
64065;SDS011;50318;54.760;9.408;2022-11-12T06:34:08;57.20;;;31.37;;
64065;SDS011;50318;54.760;9.408;2022-11-12T06:36:52;55.88;;;30.77;;
64065;SDS011;50318;54.760;9.408;2022-11-12T06:39:36;53.83;;;31.08;;
64065;SDS011;50318;54.760;9.408;2022-11-12T06:42:21;52.63;;;30.17;;
64065;SDS011;50318;54.760;9.408;2022-11-12T06:45:38;55.95;;;30.17;;
64065;SDS011;50318;54.760;9.408;2022-11-12T06:48:22;58.28;;;30.48;;
64065;SDS011;50318;54.760;9.408;2022-11-12T06:51:08;56.17;;;29.40;;
64065;SDS011;50318;54.760;9.408;2022-11-12T06:53:59;53.67;;;30.07;;
64065;SDS011;50318;54.760;9.408;2022-11-12T06:56:44;52.95;;;30.23;;
64065;SDS011;50318;54.760;9.408;2022-11-12T06:59:28;51.65;;;30.10;;
64065;SDS011;50318;54.760;9.408;2022-11-12T07:02:12;53.23;;;30.17;;
64065;SDS011;50318;54.760;9.408;2022-11-12T07:05:00;52.58;;;30.00;;
64065;SDS011;50318;54.760;9.408;2022-11-12T07:07:44;53.03;;;28.92;;
64065;SDS011;50318;54.760;9.408;2022-11-12T07:10:28;53.63;;;29.77;;
64065;SDS011;50318;54.760;9.408;2022-11-12T07:13:13;48.22;;;28.13;;
64065;SDS011;50318;54.760;9.408;2022-11-12T07:15:58;48.45;;;28.80;;
64065;SDS011;50318;54.760;9.408;2022-11-12T07:18:45;50.47;;;28.70;;
64065;SDS011;50318;54.760;9.408;2022-11-12T07:21:30;49.85;;;28.58;;
64065;SDS011;50318;54.760;9.408;2022-11-12T07:24:20;50.07;;;29.37;;
64065;SDS011;50318;54.760;9.408;2022-11-12T07:27:05;50.93;;;28.97;;
64065;SDS011;50318;54.760;9.408;2022-11-12T07:29:49;53.03;;;30.20;;
64065;SDS011;50318;54.760;9.408;2022-11-12T07:32:33;51.90;;;29.30;;
64065;SDS011;50318;54.760;9.408;2022-11-12T07:35:18;50.85;;;29.63;;
64065;SDS011;50318;54.760;9.408;2022-11-12T07:38:02;52.50;;;29.13;;
64065;SDS011;50318;54.760;9.408;2022-11-12T07:40:46;50.60;;;29.00;;
64065;SDS011;50318;54.760;9.408;2022-11-12T07:43:31;47.67;;;28.42;;
64065;SDS011;50318;54.760;9.408;2022-11-12T07:46:17;46.97;;;28.35;;
64065;SDS011;50318;54.760;9.408;2022-11-12T07:49:06;51.33;;;27.17;;
64065;SDS011;50318;54.760;9.408;2022-11-12T07:51:50;51.60;;;29.30;;
64065;SDS011;50318;54.760;9.408;2022-11-12T07:54:35;54.63;;;29.90;;
64065;SDS011;50318;54.760;9.408;2022-11-12T07:57:19;48.37;;;28.93;;
64065;SDS011;50318;54.760;9.408;2022-11-12T08:00:03;49.33;;;29.98;;
64065;SDS011;50318;54.760;9.408;2022-11-12T08:02:48;51.78;;;29.85;;
64065;SDS011;50318;54.760;9.408;2022-11-12T08:05:33;50.15;;;30.17;;
64065;SDS011;50318;54.760;9.408;2022-11-12T08:08:17;51.45;;;30.13;;
64065;SDS011;50318;54.760;9.408;2022-11-12T08:11:01;51.03;;;30.27;;
64065;SDS011;50318;54.760;9.408;2022-11-12T08:14:06;53.60;;;30.77;;
64065;SDS011;50318;54.760;9.408;2022-11-12T08:16:50;48.70;;;30.23;;
64065;SDS011;50318;54.760;9.408;2022-11-12T08:19:35;50.35;;;30.63;;
64065;SDS011;50318;54.760;9.408;2022-11-12T08:22:19;49.73;;;30.67;;
64065;SDS011;50318;54.760;9.408;2022-11-12T08:25:04;52.73;;;31.37;;
64065;SDS011;50318;54.760;9.408;2022-11-12T08:27:49;48.85;;;30.60;;
64065;SDS011;50318;54.760;9.408;2022-11-12T08:30:34;47.35;;;29.98;;
64065;SDS011;50318;54.760;9.408;2022-11-12T08:33:18;52.95;;;30.63;;
64065;SDS011;50318;54.760;9.408;2022-11-12T08:36:06;47.53;;;29.60;;
64065;SDS011;50318;54.760;9.408;2022-11-12T08:38:52;51.17;;;31.20;;
64065;SDS011;50318;54.760;9.408;2022-11-12T08:41:37;52.47;;;31.52;;
64065;SDS011;50318;54.760;9.408;2022-11-12T08:44:41;50.40;;;30.52;;
64065;SDS011;50318;54.760;9.408;2022-11-12T08:47:25;46.15;;;30.58;;
64065;SDS011;50318;54.760;9.408;2022-11-12T08:50:09;47.50;;;30.45;;
64065;SDS011;50318;54.760;9.408;2022-11-12T08:53:00;46.17;;;29.80;;
64065;SDS011;50318;54.760;9.408;2022-11-12T08:55:45;48.60;;;30.27;;
64065;SDS011;50318;54.760;9.408;2022-11-12T08:58:29;43.75;;;30.15;;
64065;SDS011;50318;54.760;9.408;2022-11-12T09:01:13;48.78;;;29.35;;
64065;SDS011;50318;54.760;9.408;2022-11-12T09:03:58;47.13;;;29.63;;
64065;SDS011;50318;54.760;9.408;2022-11-12T09:06:49;48.40;;;30.40;;
64065;SDS011;50318;54.760;9.408;2022-11-12T09:09:43;45.90;;;29.67;;
64065;SDS011;50318;54.760;9.408;2022-11-12T09:12:53;46.78;;;29.65;;
64065;SDS011;50318;54.760;9.408;2022-11-12T09:15:39;47.90;;;29.42;;
64065;SDS011;50318;54.760;9.408;2022-11-12T09:18:23;47.83;;;29.50;;
64065;SDS011;50318;54.760;9.408;2022-11-12T09:21:11;42.97;;;28.70;;
64065;SDS011;50318;54.760;9.408;2022-11-12T09:23:55;46.40;;;30.13;;
64065;SDS011;50318;54.760;9.408;2022-11-12T09:26:39;46.60;;;30.17;;
64065;SDS011;50318;54.760;9.408;2022-11-12T09:29:23;44.63;;;29.40;;
64065;SDS011;50318;54.760;9.408;2022-11-12T09:32:08;43.47;;;29.60;;
64065;SDS011;50318;54.760;9.408;2022-11-12T09:34:52;45.00;;;30.55;;
64065;SDS011;50318;54.760;9.408;2022-11-12T09:37:36;48.83;;;30.83;;
64065;SDS011;50318;54.760;9.408;2022-11-12T09:40:21;44.42;;;30.13;;
64065;SDS011;50318;54.760;9.408;2022-11-12T09:43:39;45.58;;;30.65;;
64065;SDS011;50318;54.760;9.408;2022-11-12T09:46:32;44.47;;;29.02;;
64065;SDS011;50318;54.760;9.408;2022-11-12T09:49:33;44.97;;;29.50;;
64065;SDS011;50318;54.760;9.408;2022-11-12T09:52:26;42.87;;;29.27;;
64065;SDS011;50318;54.760;9.408;2022-11-12T09:58:28;43.80;;;29.35;;
64065;SDS011;50318;54.760;9.408;2022-11-12T10:01:13;43.17;;;28.98;;
64065;SDS011;50318;54.760;9.408;2022-11-12T10:10:46;39.75;;;27.73;;
64065;SDS011;50318;54.760;9.408;2022-11-12T10:22:36;38.03;;;27.45;;
64065;SDS011;50318;54.760;9.408;2022-11-12T10:25:34;41.60;;;27.13;;
64065;SDS011;50318;54.760;9.408;2022-11-12T10:31:33;39.95;;;28.23;;
64065;SDS011;50318;54.760;9.408;2022-11-12T10:34:21;40.50;;;28.03;;
64065;SDS011;50318;54.760;9.408;2022-11-12T10:45:58;40.37;;;27.90;;
64065;SDS011;50318;54.760;9.408;2022-11-12T10:49:02;40.70;;;27.75;;
64065;SDS011;50318;54.760;9.408;2022-11-12T10:52:22;40.70;;;28.08;;
64065;SDS011;50318;54.760;9.408;2022-11-12T11:00:54;39.00;;;27.33;;
64065;SDS011;50318;54.760;9.408;2022-11-12T11:03:46;38.70;;;27.10;;
64065;SDS011;50318;54.760;9.408;2022-11-12T11:06:37;36.00;;;27.77;;
64065;SDS011;50318;54.760;9.408;2022-11-12T11:09:21;39.50;;;28.60;;
64065;SDS011;50318;54.760;9.408;2022-11-12T11:12:21;41.97;;;28.10;;
64065;SDS011;50318;54.760;9.408;2022-11-12T11:17:54;37.38;;;27.48;;
64065;SDS011;50318;54.760;9.408;2022-11-12T11:20:46;40.08;;;28.92;;
64065;SDS011;50318;54.760;9.408;2022-11-12T11:32:54;38.97;;;28.45;;
64065;SDS011;50318;54.760;9.408;2022-11-12T11:58:35;37.55;;;27.33;;
64065;SDS011;50318;54.760;9.408;2022-11-12T12:05:40;37.63;;;27.43;;
64065;SDS011;50318;54.760;9.408;2022-11-12T12:20:18;34.45;;;25.40;;
64065;SDS011;50318;54.760;9.408;2022-11-12T12:23:26;33.97;;;26.20;;
64065;SDS011;50318;54.760;9.408;2022-11-12T12:29:38;35.03;;;26.40;;
64065;SDS011;50318;54.760;9.408;2022-11-12T12:32:31;34.50;;;26.23;;
64065;SDS011;50318;54.760;9.408;2022-11-12T12:44:02;37.13;;;27.57;;
64065;SDS011;50318;54.760;9.408;2022-11-12T12:46:49;36.63;;;28.37;;
64065;SDS011;50318;54.760;9.408;2022-11-12T12:49:39;39.47;;;29.20;;
64065;SDS011;50318;54.760;9.408;2022-11-12T12:52:25;38.70;;;27.85;;
64065;SDS011;50318;54.760;9.408;2022-11-12T12:55:32;38.43;;;28.40;;
64065;SDS011;50318;54.760;9.408;2022-11-12T13:01:31;39.15;;;28.90;;
64065;SDS011;50318;54.760;9.408;2022-11-12T13:04:34;43.65;;;29.50;;
64065;SDS011;50318;54.760;9.408;2022-11-12T13:07:46;41.50;;;29.00;;
64065;SDS011;50318;54.760;9.408;2022-11-12T13:10:33;40.50;;;29.33;;
64065;SDS011;50318;54.760;9.408;2022-11-12T13:13:28;40.00;;;29.20;;
64065;SDS011;50318;54.760;9.408;2022-11-12T13:19:44;40.25;;;29.55;;
64065;SDS011;50318;54.760;9.408;2022-11-12T13:25:27;40.15;;;30.63;;
64065;SDS011;50318;54.760;9.408;2022-11-12T13:28:13;40.70;;;30.92;;
64065;SDS011;50318;54.760;9.408;2022-11-12T13:30:59;41.72;;;31.30;;
64065;SDS011;50318;54.760;9.408;2022-11-12T13:33:47;41.35;;;30.65;;
64065;SDS011;50318;54.760;9.408;2022-11-12T13:36:31;39.87;;;31.10;;
64065;SDS011;50318;54.760;9.408;2022-11-12T13:39:17;40.43;;;31.10;;
64065;SDS011;50318;54.760;9.408;2022-11-12T13:42:12;41.67;;;31.67;;
64065;SDS011;50318;54.760;9.408;2022-11-12T13:45:20;41.27;;;31.70;;
64065;SDS011;50318;54.760;9.408;2022-11-12T13:48:06;45.85;;;32.85;;
64065;SDS011;50318;54.760;9.408;2022-11-12T13:51:03;47.97;;;33.70;;
64065;SDS011;50318;54.760;9.408;2022-11-12T13:53:54;44.60;;;32.95;;
64065;SDS011;50318;54.760;9.408;2022-11-12T13:56:39;50.58;;;34.85;;
64065;SDS011;50318;54.760;9.408;2022-11-12T13:59:24;48.22;;;33.85;;
64065;SDS011;50318;54.760;9.408;2022-11-12T14:02:18;48.53;;;33.10;;
64065;SDS011;50318;54.760;9.408;2022-11-12T14:05:02;47.33;;;33.00;;
64065;SDS011;50318;54.760;9.408;2022-11-12T14:14:24;46.15;;;31.48;;
64065;SDS011;50318;54.760;9.408;2022-11-12T14:25:56;38.50;;;28.40;;
64065;SDS011;50318;54.760;9.408;2022-11-12T14:28:41;40.45;;;27.75;;
64065;SDS011;50318;54.760;9.408;2022-11-12T14:31:26;38.55;;;26.58;;
64065;SDS011;50318;54.760;9.408;2022-11-12T14:34:26;37.25;;;26.10;;
64065;SDS011;50318;54.760;9.408;2022-11-12T14:37:47;38.15;;;25.38;;
64065;SDS011;50318;54.760;9.408;2022-11-12T14:40:29;37.88;;;24.90;;
64065;SDS011;50318;54.760;9.408;2022-11-12T14:43:35;39.17;;;25.30;;
64065;SDS011;50318;54.760;9.408;2022-11-12T14:46:25;34.92;;;25.20;;
64065;SDS011;50318;54.760;9.408;2022-11-12T14:52:25;37.55;;;25.42;;
64065;SDS011;50318;54.760;9.408;2022-11-12T14:55:15;35.75;;;24.73;;
64065;SDS011;50318;54.760;9.408;2022-11-12T14:58:03;34.13;;;24.05;;
64065;SDS011;50318;54.760;9.408;2022-11-12T15:06:55;35.33;;;24.20;;
64065;SDS011;50318;54.760;9.408;2022-11-12T15:09:41;32.63;;;23.58;;
64065;SDS011;50318;54.760;9.408;2022-11-12T15:12:26;35.05;;;24.02;;
64065;SDS011;50318;54.760;9.408;2022-11-12T15:15:20;35.42;;;25.25;;
64065;SDS011;50318;54.760;9.408;2022-11-12T15:18:16;36.50;;;25.17;;
64065;SDS011;50318;54.760;9.408;2022-11-12T15:21:14;38.05;;;25.35;;
64065;SDS011;50318;54.760;9.408;2022-11-12T15:24:16;37.38;;;26.00;;
64065;SDS011;50318;54.760;9.408;2022-11-12T15:27:26;37.83;;;26.77;;
64065;SDS011;50318;54.760;9.408;2022-11-12T15:33:20;37.90;;;26.80;;
64065;SDS011;50318;54.760;9.408;2022-11-12T15:36:19;39.08;;;26.58;;
64065;SDS011;50318;54.760;9.408;2022-11-12T15:39:09;43.42;;;28.75;;
64065;SDS011;50318;54.760;9.408;2022-11-12T15:41:59;43.33;;;29.70;;
64065;SDS011;50318;54.760;9.408;2022-11-12T15:44:46;44.10;;;30.50;;
64065;SDS011;50318;54.760;9.408;2022-11-12T15:47:31;42.35;;;28.77;;
64065;SDS011;50318;54.760;9.408;2022-11-12T15:50:16;43.78;;;29.02;;
64065;SDS011;50318;54.760;9.408;2022-11-12T15:53:03;53.80;;;33.45;;
64065;SDS011;50318;54.760;9.408;2022-11-12T15:55:47;49.55;;;32.33;;
64065;SDS011;50318;54.760;9.408;2022-11-12T15:58:34;52.05;;;34.05;;
64065;SDS011;50318;54.760;9.408;2022-11-12T16:01:20;53.05;;;32.80;;
64065;SDS011;50318;54.760;9.408;2022-11-12T16:04:25;47.25;;;32.20;;
64065;SDS011;50318;54.760;9.408;2022-11-12T16:07:09;47.63;;;31.65;;
64065;SDS011;50318;54.760;9.408;2022-11-12T16:09:53;47.42;;;31.00;;
64065;SDS011;50318;54.760;9.408;2022-11-12T16:12:38;47.70;;;31.30;;
64065;SDS011;50318;54.760;9.408;2022-11-12T16:15:35;49.08;;;30.80;;
64065;SDS011;50318;54.760;9.408;2022-11-12T16:18:20;45.63;;;30.65;;
64065;SDS011;50318;54.760;9.408;2022-11-12T16:21:04;42.53;;;29.37;;
64065;SDS011;50318;54.760;9.408;2022-11-12T16:23:49;48.13;;;30.83;;
64065;SDS011;50318;54.760;9.408;2022-11-12T16:26:33;45.33;;;29.77;;
64065;SDS011;50318;54.760;9.408;2022-11-12T16:29:19;44.43;;;29.17;;
64065;SDS011;50318;54.760;9.408;2022-11-12T16:32:03;40.55;;;28.05;;
64065;SDS011;50318;54.760;9.408;2022-11-12T16:35:01;43.40;;;28.27;;
64065;SDS011;50318;54.760;9.408;2022-11-12T16:37:45;40.88;;;27.90;;
64065;SDS011;50318;54.760;9.408;2022-11-12T16:40:30;41.20;;;27.88;;
64065;SDS011;50318;54.760;9.408;2022-11-12T16:43:14;43.85;;;29.10;;
64065;SDS011;50318;54.760;9.408;2022-11-12T16:45:58;39.60;;;27.83;;
64065;SDS011;50318;54.760;9.408;2022-11-12T16:49:03;41.97;;;28.77;;
64065;SDS011;50318;54.760;9.408;2022-11-12T16:51:47;42.20;;;30.42;;
64065;SDS011;50318;54.760;9.408;2022-11-12T16:54:32;45.55;;;31.17;;
64065;SDS011;50318;54.760;9.408;2022-11-12T16:57:16;44.70;;;31.67;;
64065;SDS011;50318;54.760;9.408;2022-11-12T17:00:01;46.30;;;32.50;;
64065;SDS011;50318;54.760;9.408;2022-11-12T17:03:02;45.90;;;33.47;;
64065;SDS011;50318;54.760;9.408;2022-11-12T17:05:50;54.33;;;35.40;;
64065;SDS011;50318;54.760;9.408;2022-11-12T17:08:35;48.45;;;33.28;;
64065;SDS011;50318;54.760;9.408;2022-11-12T17:11:19;50.72;;;34.20;;
64065;SDS011;50318;54.760;9.408;2022-11-12T17:14:04;49.47;;;32.92;;
64065;SDS011;50318;54.760;9.408;2022-11-12T17:16:48;48.37;;;32.70;;
64065;SDS011;50318;54.760;9.408;2022-11-12T17:19:33;48.08;;;32.25;;
64065;SDS011;50318;54.760;9.408;2022-11-12T17:22:17;46.72;;;32.08;;
64065;SDS011;50318;54.760;9.408;2022-11-12T17:25:03;50.22;;;32.13;;
64065;SDS011;50318;54.760;9.408;2022-11-12T17:27:48;48.22;;;32.65;;
64065;SDS011;50318;54.760;9.408;2022-11-12T17:30:36;57.05;;;35.92;;
64065;SDS011;50318;54.760;9.408;2022-11-12T17:33:20;57.77;;;37.23;;
64065;SDS011;50318;54.760;9.408;2022-11-12T17:36:05;60.97;;;35.63;;
64065;SDS011;50318;54.760;9.408;2022-11-12T17:39:23;55.90;;;35.38;;
64065;SDS011;50318;54.760;9.408;2022-11-12T17:42:08;58.08;;;37.90;;
64065;SDS011;50318;54.760;9.408;2022-11-12T17:44:52;56.80;;;36.92;;
64065;SDS011;50318;54.760;9.408;2022-11-12T17:48:03;53.05;;;35.22;;
64065;SDS011;50318;54.760;9.408;2022-11-12T17:51:11;56.63;;;35.95;;
64065;SDS011;50318;54.760;9.408;2022-11-12T17:53:57;61.15;;;37.33;;
64065;SDS011;50318;54.760;9.408;2022-11-12T17:56:41;60.75;;;38.50;;
64065;SDS011;50318;54.760;9.408;2022-11-12T17:59:58;63.00;;;39.53;;
64065;SDS011;50318;54.760;9.408;2022-11-12T18:02:43;65.97;;;40.72;;
64065;SDS011;50318;54.760;9.408;2022-11-12T18:05:27;68.18;;;40.70;;
64065;SDS011;50318;54.760;9.408;2022-11-12T18:08:11;67.22;;;40.58;;
64065;SDS011;50318;54.760;9.408;2022-11-12T18:10:57;70.88;;;42.58;;
64065;SDS011;50318;54.760;9.408;2022-11-12T18:13:41;67.25;;;41.60;;
64065;SDS011;50318;54.760;9.408;2022-11-12T18:16:26;75.65;;;42.80;;
64065;SDS011;50318;54.760;9.408;2022-11-12T18:19:12;71.35;;;41.72;;
64065;SDS011;50318;54.760;9.408;2022-11-12T18:21:57;70.45;;;42.70;;
64065;SDS011;50318;54.760;9.408;2022-11-12T18:24:42;74.38;;;43.22;;
64065;SDS011;50318;54.760;9.408;2022-11-12T18:27:28;74.93;;;43.10;;
64065;SDS011;50318;54.760;9.408;2022-11-12T18:30:12;74.53;;;43.17;;
64065;SDS011;50318;54.760;9.408;2022-11-12T18:32:56;77.65;;;44.72;;
64065;SDS011;50318;54.760;9.408;2022-11-12T18:35:58;80.43;;;46.35;;
64065;SDS011;50318;54.760;9.408;2022-11-12T18:38:47;75.40;;;45.58;;
64065;SDS011;50318;54.760;9.408;2022-11-12T18:41:32;85.32;;;47.85;;
64065;SDS011;50318;54.760;9.408;2022-11-12T18:44:17;84.83;;;47.23;;
64065;SDS011;50318;54.760;9.408;2022-11-12T18:47:01;83.10;;;46.93;;